Hartford, Maine
Current Conditions -  °F | °C
As of 8:35 AM on Sunday 21 Dec 2014 (Local Time) from KLEW Reporting Station
Overcast Overcast  
Wind Chill: 11°   Ceiling: 800
Heat Index: 21°   Visibility: 10mi
Dew Point: 18°   Wind: 9mph
Humidity: 86%   Direction: 360°N
Pressure: 30.35"   Gusts: NA
Location:  44.2833°N, 70.3688°W
Report Text: KLEW 211335Z AUTO 36008KT 10SM OVC008 M06/M08 A3035 RMK AO1
Loading
Personal Weather Stations






























Interactive Weather Map New forecast layout! Learn more

10-Day Weather Forecast

Advertisements
Track Severe Weather on mobile